Time;durP1;ratioP1;P1;durP2;ratioP2;P2;SDS_P1;SDS_P2;PMS_P1;PMS_P2;Temp;Humidity;BMP_temperature;BMP_pressure;BME280_temperature;BME280_humidity;BME280_pressure;Samples;Min_cycle;Max_cycle;Signal;HPM_P1;HPM_P2
2021/04/08 00:02:11;;;;;;;1.27;0.20;;;2.50;90.80;;;;;;4844048;29;20049;-73
2021/04/08 00:04:37;;;;;;;2.40;0.27;;;2.50;90.80;;;;;;4859287;29;20120;-74
2021/04/08 00:07:04;;;;;;;1.90;0.40;;;2.40;90.80;;;;;;4874567;29;20102;-75
2021/04/08 00:09:31;;;;;;;1.30;0.40;;;2.40;90.80;;;;;;4844018;29;20101;-74
2021/04/08 00:11:57;;;;;;;2.30;0.50;;;2.40;90.90;;;;;;4856726;29;20078;-74
2021/04/08 00:14:25;;;;;;;1.60;0.20;;;2.30;90.90;;;;;;4835414;29;20056;-74
2021/04/08 00:16:52;;;;;;;1.23;0.30;;;2.30;90.90;;;;;;4859166;29;20037;-75
2021/04/08 00:19:19;;;;;;;1.43;0.30;;;2.30;90.90;;;;;;4847338;29;20068;-74
2021/04/08 00:21:45;;;;;;;2.00;0.20;;;2.30;90.90;;;;;;4860298;29;20126;-74
2021/04/08 00:24:12;;;;;;;2.30;0.30;;;2.20;90.90;;;;;;4840853;29;20045;-74
2021/04/08 00:26:39;;;;;;;2.10;0.10;;;2.20;90.90;;;;;;4860054;29;20125;-74
2021/04/08 00:29:06;;;;;;;1.97;0.30;;;2.20;91.00;;;;;;4846459;29;20053;-74
2021/04/08 00:31:32;;;;;;;2.77;0.33;;;2.20;91.00;;;;;;4860250;29;20046;-74
2021/04/08 00:34:09;;;;;;;1.43;0.20;;;2.10;91.00;;;;;;4844769;29;20065;-73
2021/04/08 00:36:36;;;;;;;1.47;0.20;;;2.10;91.10;;;;;;4858820;29;20045;-74
2021/04/08 00:39:04;;;;;;;1.40;0.10;;;2.00;91.10;;;;;;4859216;29;20470;-73
2021/04/08 00:41:32;;;;;;;1.53;0.50;;;2.00;91.10;;;;;;4846222;29;20497;-73
2021/04/08 00:43:59;;;;;;;3.70;0.30;;;2.00;91.10;;;;;;4858365;29;20049;-73
2021/04/08 00:46:26;;;;;;;3.43;0.30;;;2.00;91.10;;;;;;4859605;29;20052;-73
2021/04/08 00:48:52;;;;;;;1.90;0.20;;;2.00;91.20;;;;;;4848026;29;20060;-73
2021/04/08 00:51:20;;;;;;;2.63;0.33;;;2.00;91.20;;;;;;4834365;29;20045;-73
2021/04/08 00:53:47;;;;;;;0.90;0.30;;;2.00;91.10;;;;;;4861430;29;20098;-73
2021/04/08 00:56:15;;;;;;;3.20;0.20;;;2.00;91.20;;;;;;4862782;29;20042;-73
2021/04/08 00:58:43;;;;;;;2.27;0.40;;;2.00;91.20;;;;;;4831914;29;20041;-73
2021/04/08 01:01:11;;;;;;;2.50;0.30;;;1.90;91.20;;;;;;4861906;29;20056;-73
2021/04/08 01:03:38;;;;;;;3.37;0.50;;;2.00;91.30;;;;;;4861611;29;20049;-73
2021/04/08 01:06:06;;;;;;;3.07;0.50;;;1.90;91.20;;;;;;4862026;29;20072;-74
2021/04/08 01:08:33;;;;;;;1.80;0.40;;;1.90;91.20;;;;;;4861948;29;20459;-73
2021/04/08 01:11:00;;;;;;;2.50;0.40;;;1.90;91.20;;;;;;4851082;29;20528;-73
2021/04/08 01:13:27;;;;;;;2.43;0.70;;;1.90;91.30;;;;;;4846324;29;20057;-73
2021/04/08 01:15:57;;;;;;;5.80;0.93;;;1.90;91.30;;;;;;4846355;29;20047;-73
2021/04/08 01:18:43;;;;;;;3.00;0.40;;;1.90;91.40;;;;;;4861509;29;20045;-73
2021/04/08 01:21:35;;;;;;;1.77;0.40;;;1.90;91.30;;;;;;4865826;29;20397;-73
2021/04/08 01:24:25;;;;;;;4.07;0.77;;;1.80;91.30;;;;;;4862521;29;20386;-73
2021/04/08 01:27:09;;;;;;;3.33;0.30;;;1.80;91.30;;;;;;4861557;29;20041;-73
2021/04/08 01:30:20;;;;;;;2.50;0.40;;;1.80;91.30;;;;;;4862464;29;20057;-73
2021/04/08 01:32:51;;;;;;;1.73;0.40;;;1.80;91.40;;;;;;4841737;29;20049;-73
2021/04/08 01:35:26;;;;;;;3.10;0.30;;;1.80;91.70;;;;;;4823851;29;20073;-73
2021/04/08 01:38:21;;;;;;;2.40;0.37;;;1.70;91.40;;;;;;4845725;29;20050;-74
2021/04/08 01:40:49;;;;;;;3.83;1.00;;;1.80;91.40;;;;;;4861309;29;20073;-74
2021/04/08 01:43:24;;;;;;;5.80;0.50;;;1.80;91.50;;;;;;4861248;29;20046;-73
2021/04/08 01:45:53;;;;;;;1.07;0.30;;;1.80;91.50;;;;;;4860720;29;20058;-73
2021/04/08 01:48:20;;;;;;;3.43;0.40;;;1.70;91.50;;;;;;4852587;29;20110;-74
2021/04/08 01:50:49;;;;;;;1.10;0.50;;;1.80;91.50;;;;;;4862077;29;20124;-73
2021/04/08 01:53:17;;;;;;;1.43;0.30;;;1.80;91.50;;;;;;4861982;29;20073;-74
2021/04/08 01:55:44;;;;;;;1.00;0.20;;;1.80;91.60;;;;;;4860986;29;20053;-74
2021/04/08 01:58:17;;;;;;;1.07;0.40;;;1.80;91.60;;;;;;4849282;29;20045;-74
2021/04/08 02:00:44;;;;;;;2.77;0.57;;;1.80;91.60;;;;;;4855264;29;20106;-74
2021/04/08 02:03:13;;;;;;;1.90;0.50;;;1.90;91.60;;;;;;4860961;29;20057;-74
2021/04/08 02:05:41;;;;;;;2.00;0.60;;;1.90;91.60;;;;;;4861409;29;20133;-73
2021/04/08 02:08:08;;;;;;;2.03;0.47;;;2.00;91.50;;;;;;4860549;29;20082;-73
2021/04/08 02:10:37;;;;;;;1.97;0.50;;;2.10;91.50;;;;;;4861968;29;20044;-73
2021/04/08 02:13:05;;;;;;;1.93;0.43;;;2.20;91.50;;;;;;4861601;29;20417;-73
2021/04/08 02:15:33;;;;;;;3.13;0.43;;;2.20;91.40;;;;;;4845943;29;20046;-73
2021/04/08 02:18:01;;;;;;;1.57;0.37;;;2.30;91.40;;;;;;4860604;29;20041;-74
2021/04/08 02:20:31;;;;;;;2.20;0.30;;;2.30;91.40;;;;;;4856529;29;20120;-73
2021/04/08 02:23:03;;;;;;;1.87;0.50;;;2.40;91.40;;;;;;4859749;29;20397;-73
2021/04/08 02:25:33;;;;;;;2.20;0.50;;;2.40;91.30;;;;;;4861533;29;20041;-73
2021/04/08 02:28:03;;;;;;;2.63;0.47;;;2.50;91.20;;;;;;4860251;29;20494;-73
2021/04/08 02:30:31;;;;;;;1.93;0.50;;;2.50;91.20;;;;;;4860076;29;20057;-73
2021/04/08 02:32:57;;;;;;;1.27;0.30;;;2.60;91.20;;;;;;4861231;29;20038;-73
2021/04/08 02:35:24;;;;;;;2.17;0.40;;;2.60;91.20;;;;;;4860342;29;20086;-73
2021/04/08 02:37:51;;;;;;;1.70;0.40;;;2.60;91.10;;;;;;4859671;29;20048;-73
2021/04/08 02:40:20;;;;;;;1.93;0.20;;;2.60;91.10;;;;;;4853920;29;20057;-73
2021/04/08 02:42:48;;;;;;;1.13;0.20;;;2.60;91.10;;;;;;4861250;29;20041;-73
2021/04/08 02:45:16;;;;;;;2.97;0.30;;;2.70;91.10;;;;;;4861528;29;20054;-73
2021/04/08 02:47:43;;;;;;;1.87;0.30;;;2.70;91.00;;;;;;4859553;29;20101;-73
2021/04/08 02:50:12;;;;;;;1.57;0.40;;;2.70;91.00;;;;;;4860101;29;20053;-73
2021/04/08 02:52:52;;;;;;;1.53;0.30;;;2.70;90.90;;;;;;4861023;29;20439;-73
2021/04/08 02:55:42;;;;;;;2.90;0.60;;;2.70;90.90;;;;;;4856078;29;20053;-73
2021/04/08 02:58:13;;;;;;;2.50;0.40;;;2.70;90.90;;;;;;4860227;29;20049;-74
2021/04/08 03:00:47;;;;;;;1.90;0.20;;;2.80;90.90;;;;;;4860476;29;20037;-74
2021/04/08 03:03:18;;;;;;;3.20;0.13;;;2.80;91.20;;;;;;4860406;29;20057;-74
2021/04/08 03:05:47;;;;;;;1.30;0.20;;;2.80;90.90;;;;;;4861462;29;20038;-75
2021/04/08 03:08:17;;;;;;;1.07;0.13;;;2.80;90.90;;;;;;4845061;29;20061;-74
2021/04/08 03:10:45;;;;;;;0.93;0.10;;;2.80;90.90;;;;;;4861507;29;20041;-74
2021/04/08 03:13:13;;;;;;;3.20;0.30;;;2.80;90.90;;;;;;4859016;29;20458;-74
2021/04/08 03:15:42;;;;;;;1.83;0.20;;;2.80;90.90;;;;;;4845033;29;20081;-74
2021/04/08 03:18:16;;;;;;;0.77;0.20;;;2.80;90.90;;;;;;4859927;29;20046;-75
2021/04/08 03:20:48;;;;;;;0.80;0.20;;;2.80;90.90;;;;;;4861495;29;20041;-74
2021/04/08 03:23:16;;;;;;;1.73;0.20;;;2.80;90.90;;;;;;4861245;29;20038;-73
2021/04/08 03:25:44;;;;;;;1.50;0.27;;;2.80;91.00;;;;;;4841281;29;20072;-73
2021/04/08 03:28:15;;;;;;;3.60;0.30;;;2.80;90.90;;;;;;4844448;29;20045;-74
2021/04/08 03:30:43;;;;;;;0.50;0.13;;;2.80;90.90;;;;;;4847800;29;20041;-74
2021/04/08 03:33:11;;;;;;;1.93;0.27;;;2.80;91.20;;;;;;4859593;29;20422;-74
2021/04/08 03:35:38;;;;;;;2.07;0.33;;;2.80;91.00;;;;;;4870392;29;20433;-74
2021/04/08 03:38:06;;;;;;;1.10;0.40;;;2.80;91.00;;;;;;4861682;29;20046;-74
2021/04/08 03:40:33;;;;;;;0.90;0.30;;;2.90;91.00;;;;;;4860499;29;20069;-75
2021/04/08 03:43:00;;;;;;;2.67;0.50;;;2.90;91.00;;;;;;4859514;29;20124;-74
2021/04/08 03:45:26;;;;;;;1.40;0.20;;;2.90;91.00;;;;;;4860871;29;20042;-74
2021/04/08 03:47:54;;;;;;;1.80;0.50;;;2.90;91.00;;;;;;4861271;29;20049;-74
2021/04/08 03:50:21;;;;;;;3.03;0.57;;;2.90;91.00;;;;;;4857514;29;20458;-74
2021/04/08 03:52:48;;;;;;;1.73;0.43;;;2.90;91.00;;;;;;4834796;29;20045;-74
2021/04/08 03:55:15;;;;;;;2.03;0.40;;;3.00;91.00;;;;;;4828414;29;20053;-74
2021/04/08 03:57:43;;;;;;;0.73;0.20;;;3.00;91.00;;;;;;4862177;29;20098;-74
2021/04/08 04:00:11;;;;;;;2.27;0.37;;;3.00;91.00;;;;;;4860631;29;20099;-74
2021/04/08 04:02:39;;;;;;;2.00;0.57;;;3.00;91.20;;;;;;4858036;29;20041;-74
2021/04/08 04:05:08;;;;;;;2.97;0.50;;;3.00;91.30;;;;;;4858637;29;20045;-74
2021/04/08 04:07:36;;;;;;;2.73;0.50;;;3.00;91.00;;;;;;4868308;29;20102;-74
2021/04/08 04:10:04;;;;;;;2.93;0.50;;;3.10;91.00;;;;;;4859185;29;20078;-75
2021/04/08 04:12:35;;;;;;;1.80;0.60;;;3.00;91.00;;;;;;4859777;29;20065;-74
2021/04/08 04:15:04;;;;;;;2.13;0.50;;;3.00;90.90;;;;;;4858734;29;20041;-74
2021/04/08 04:17:31;;;;;;;3.37;0.50;;;3.00;90.90;;;;;;4859673;29;20045;-74
2021/04/08 04:19:59;;;;;;;2.17;0.50;;;3.10;90.90;;;;;;4858419;29;20498;-74
2021/04/08 04:22:37;;;;;;;2.67;0.50;;;3.00;90.90;;;;;;4843916;29;20480;-74
2021/04/08 04:25:06;;;;;;;2.93;0.57;;;3.00;90.90;;;;;;4860120;29;20054;-74
2021/04/08 04:27:33;;;;;;;1.50;0.50;;;3.00;90.90;;;;;;4858867;29;20054;-74
2021/04/08 04:30:00;;;;;;;1.33;0.30;;;3.00;90.90;;;;;;4859819;29;20046;-74
2021/04/08 04:32:26;;;;;;;0.73;0.23;;;3.00;90.90;;;;;;4870475;29;20136;-74
2021/04/08 04:34:53;;;;;;;1.50;0.30;;;3.00;90.90;;;;;;4862620;29;20490;-76
2021/04/08 04:37:20;;;;;;;2.57;0.30;;;3.00;91.00;;;;;;4860212;29;20045;-76
2021/04/08 04:39:46;;;;;;;1.13;0.20;;;3.00;91.00;;;;;;4843814;29;20053;-76
2021/04/08 04:42:13;;;;;;;2.47;0.30;;;3.00;91.00;;;;;;4857256;29;20109;-77
2021/04/08 04:44:40;;;;;;;0.77;0.20;;;3.00;91.00;;;;;;4866784;29;20101;-76
2021/04/08 04:47:06;;;;;;;3.27;1.27;;;3.00;91.00;;;;;;4849753;29;20064;-76
2021/04/08 04:49:33;;;;;;;2.27;0.40;;;3.00;91.00;;;;;;4858768;29;20573;-77
2021/04/08 04:52:00;;;;;;;1.73;0.50;;;3.00;90.90;;;;;;4846063;29;20050;-76
2021/04/08 04:54:26;;;;;;;1.17;0.20;;;3.00;91.00;;;;;;4866383;29;20094;-75
2021/04/08 04:56:53;;;;;;;1.67;0.40;;;3.00;91.00;;;;;;4829282;29;20042;-76
2021/04/08 04:59:19;;;;;;;2.00;0.43;;;3.00;91.00;;;;;;4859931;29;20045;-74
2021/04/08 05:01:46;;;;;;;1.33;0.30;;;3.00;91.00;;;;;;4854363;29;20044;-74
2021/04/08 05:04:12;;;;;;;0.90;0.30;;;3.00;91.00;;;;;;4813125;29;20050;-75
2021/04/08 05:06:39;;;;;;;0.80;0.20;;;3.00;91.00;;;;;;4859290;29;20173;-74
2021/04/08 05:09:06;;;;;;;1.23;0.20;;;3.00;91.00;;;;;;4859243;29;20038;-74
2021/04/08 05:11:33;;;;;;;1.33;0.30;;;3.00;91.00;;;;;;4859922;29;20048;-74
2021/04/08 05:14:00;;;;;;;1.13;0.27;;;3.00;91.00;;;;;;4858486;29;20061;-74
2021/04/08 05:16:27;;;;;;;1.93;0.30;;;3.10;91.00;;;;;;4859795;29;20045;-74
2021/04/08 05:18:53;;;;;;;1.07;0.20;;;3.10;91.00;;;;;;4858359;29;20393;-74
2021/04/08 05:21:20;;;;;;;1.87;0.40;;;3.10;91.00;;;;;;4846153;29;20041;-74
2021/04/08 05:23:46;;;;;;;2.00;0.20;;;3.10;91.00;;;;;;4856960;29;20045;-74
2021/04/08 05:26:13;;;;;;;1.80;0.30;;;3.10;91.00;;;;;;4863265;29;20409;-75
2021/04/08 05:28:40;;;;;;;2.30;0.50;;;3.10;91.00;;;;;;4839935;29;20056;-74
2021/04/08 05:31:06;;;;;;;1.20;0.30;;;3.20;91.00;;;;;;4856508;29;20045;-74
2021/04/08 05:33:33;;;;;;;1.20;0.30;;;3.20;91.00;;;;;;4843773;29;20121;-75
2021/04/08 05:35:59;;;;;;;1.10;0.30;;;3.20;91.00;;;;;;4845014;29;20041;-74
2021/04/08 05:38:26;;;;;;;1.40;0.50;;;3.20;91.00;;;;;;4846535;29;20045;-74
2021/04/08 05:40:53;;;;;;;4.60;0.40;;;3.20;90.90;;;;;;4843541;29;20046;-74
2021/04/08 05:43:19;;;;;;;1.03;0.47;;;3.20;91.00;;;;;;4871624;29;20093;-74
2021/04/08 05:45:46;;;;;;;2.90;0.50;;;3.20;90.90;;;;;;4843294;29;20037;-74
2021/04/08 05:48:17;;;;;;;2.73;0.50;;;3.20;90.90;;;;;;4846636;29;20505;-75
2021/04/08 05:50:43;;;;;;;2.57;0.43;;;3.30;90.90;;;;;;4861600;29;20052;-75
2021/04/08 05:53:10;;;;;;;1.50;0.60;;;3.30;90.90;;;;;;4867182;29;20041;-75
2021/04/08 05:55:36;;;;;;;2.87;0.50;;;3.40;91.00;;;;;;4863736;29;20042;-74
2021/04/08 05:58:03;;;;;;;2.33;0.40;;;3.40;90.90;;;;;;4845438;29;20465;-75
2021/04/08 06:00:29;;;;;;;2.50;0.70;;;3.40;90.90;;;;;;4859582;29;20041;-74
2021/04/08 06:02:56;;;;;;;3.10;0.90;;;3.50;90.90;;;;;;4853857;29;20498;-74
2021/04/08 06:05:23;;;;;;;4.43;1.30;;;3.50;90.90;;;;;;4864110;29;20083;-74
2021/04/08 06:07:50;;;;;;;5.40;1.10;;;3.50;90.80;;;;;;4850943;29;20048;-75
2021/04/08 06:10:16;;;;;;;5.13;1.40;;;3.50;91.00;;;;;;4863790;29;20049;-74
2021/04/08 06:12:44;;;;;;;4.27;1.40;;;3.50;90.80;;;;;;4860548;29;20053;-73
2021/04/08 06:15:11;;;;;;;4.33;1.53;;;3.60;90.80;;;;;;4862928;29;20053;-74
2021/04/08 06:17:38;;;;;;;4.10;1.27;;;3.60;90.70;;;;;;4831232;29;20106;-75
2021/04/08 06:20:06;;;;;;;3.57;1.50;;;3.60;90.70;;;;;;4845265;29;20141;-74
2021/04/08 06:22:33;;;;;;;3.50;1.20;;;3.70;90.70;;;;;;4844756;29;20391;-74
2021/04/08 06:25:00;;;;;;;3.80;1.63;;;3.70;90.70;;;;;;4861269;29;20045;-74
2021/04/08 06:27:28;;;;;;;3.60;1.60;;;3.70;90.70;;;;;;4860658;29;20087;-75
2021/04/08 06:29:55;;;;;;;2.43;1.33;;;3.70;90.60;;;;;;4849037;29;20049;-75
2021/04/08 06:32:22;;;;;;;4.13;1.50;;;3.80;90.60;;;;;;4860899;29;20041;-75
2021/04/08 06:34:49;;;;;;;3.07;1.27;;;3.80;90.60;;;;;;4856798;29;20048;-77
2021/04/08 06:37:16;;;;;;;4.03;1.63;;;3.80;90.60;;;;;;4859601;29;20110;-74
2021/04/08 06:39:42;;;;;;;3.93;1.40;;;3.80;90.60;;;;;;4862259;29;20061;-75
2021/04/08 06:42:09;;;;;;;3.07;1.20;;;3.80;90.60;;;;;;4855953;29;20075;-75
2021/04/08 06:44:37;;;;;;;2.87;1.27;;;3.80;90.60;;;;;;4863436;29;20046;-75
2021/04/08 06:47:05;;;;;;;4.30;1.53;;;3.80;90.60;;;;;;4861743;29;20113;-75
2021/04/08 06:49:47;;;;;;;3.77;1.30;;;3.80;90.60;;;;;;4860528;29;20053;-74
2021/04/08 06:52:17;;;;;;;3.60;1.63;;;3.80;90.60;;;;;;4850777;29;20060;-74
2021/04/08 06:54:45;;;;;;;4.03;1.67;;;3.70;90.60;;;;;;4865113;29;20144;-75
2021/04/08 06:57:15;;;;;;;5.63;1.63;;;3.70;90.60;;;;;;4857489;29;20042;-75
2021/04/08 06:59:42;;;;;;;4.13;1.33;;;3.70;90.60;;;;;;4833200;29;20438;-75
2021/04/08 07:02:14;;;;;;;2.60;1.50;;;3.70;90.60;;;;;;4857357;29;20042;-75
2021/04/08 07:04:41;;;;;;;5.45;1.98;;;3.70;90.60;;;;;;4861261;29;20053;-74
2021/04/08 07:07:08;;;;;;;4.07;1.67;;;3.80;90.60;;;;;;4861360;29;20045;-74
2021/04/08 07:09:35;;;;;;;3.57;1.37;;;3.90;90.50;;;;;;4860901;29;20093;-75
2021/04/08 07:12:02;;;;;;;5.13;1.60;;;4.10;90.40;;;;;;4859737;29;20140;-75
2021/04/08 07:14:28;;;;;;;3.00;1.47;;;4.30;90.20;;;;;;4859997;29;20074;-75
2021/04/08 07:16:55;;;;;;;3.40;1.67;;;4.40;90.40;;;;;;4829762;29;20442;-74
2021/04/08 07:19:22;;;;;;;4.03;2.33;;;4.40;90.00;;;;;;4861248;29;20419;-75
2021/04/08 07:21:48;;;;;;;3.73;1.57;;;4.60;89.90;;;;;;4850794;29;20462;-73
2021/04/08 07:24:24;;;;;;;4.97;1.40;;;4.80;89.40;;;;;;4847019;29;20140;-77
2021/04/08 07:27:09;;;;;;;4.07;1.80;;;5.00;89.10;;;;;;4857934;29;20041;-75
2021/04/08 07:29:39;;;;;;;4.03;2.03;;;5.20;88.90;;;;;;4859620;29;20044;-75
2021/04/08 07:32:19;;;;;;;4.83;1.60;;;5.30;88.90;;;;;;4857270;29;20046;-74
2021/04/08 07:34:49;;;;;;;3.93;1.80;;;5.50;88.70;;;;;;4871481;29;20041;-73
2021/04/08 07:37:22;;;;;;;5.97;2.40;;;5.60;88.40;;;;;;4854351;29;20068;-76
2021/04/08 07:39:49;;;;;;;3.07;1.40;;;5.60;87.60;;;;;;4851676;29;20121;-76
2021/04/08 07:42:19;;;;;;;3.60;2.20;;;5.60;87.30;;;;;;4836315;29;20054;-75
2021/04/08 07:44:50;;;;;;;4.70;1.53;;;5.60;87.50;;;;;;4860586;29;20053;-76
2021/04/08 07:47:35;;;;;;;3.77;1.60;;;5.60;87.20;;;;;;4848433;29;20050;-76
2021/04/08 07:50:04;;;;;;;3.90;1.60;;;5.70;87.60;;;;;;4855152;29;20045;-74
2021/04/08 07:52:44;;;;;;;4.17;1.37;;;5.70;87.20;;;;;;4860979;29;20049;-73
2021/04/08 07:55:17;;;;;;;3.30;1.63;;;5.70;86.70;;;;;;4851253;29;20057;-76
2021/04/08 07:57:58;;;;;;;;;;;5.70;86.90;;;;;;4853288;29;20117;-75
2021/04/08 08:00:37;;;;;;;4.90;1.60;;;5.70;86.60;;;;;;4866786;29;20040;-74
2021/04/08 08:03:26;;;;;;;5.00;1.23;;;5.60;86.70;;;;;;4855645;29;20120;-74
2021/04/08 08:06:01;;;;;;;4.13;1.53;;;5.70;86.50;;;;;;4853732;29;20066;-73
2021/04/08 08:09:03;;;;;;;4.80;1.47;;;5.70;86.20;;;;;;4854249;29;20417;-73
2021/04/08 08:11:39;;;;;;;4.73;1.97;;;5.80;86.00;;;;;;4852218;29;20053;-75
2021/04/08 08:14:06;;;;;;;2.57;1.20;;;5.90;85.60;;;;;;4856334;29;20058;-75
2021/04/08 08:16:33;;;;;;;4.87;1.07;;;5.80;85.60;;;;;;4848718;29;20050;-76
2021/04/08 08:19:00;;;;;;;4.10;1.60;;;5.90;85.50;;;;;;4845186;29;20157;-74
2021/04/08 08:21:35;;;;;;;2.50;1.17;;;5.90;85.40;;;;;;4860080;29;20044;-74
2021/04/08 08:24:13;;;;;;;4.43;1.20;;;5.90;85.20;;;;;;4858082;29;20049;-74
2021/04/08 08:26:44;;;;;;;2.83;1.50;;;6.10;84.60;;;;;;4851214;29;20052;-75
2021/04/08 08:29:10;;;;;;;3.57;1.63;;;6.10;84.20;;;;;;4843710;29;20052;-74
2021/04/08 08:31:41;;;;;;;4.20;1.53;;;6.20;83.70;;;;;;4864043;29;20092;-75
2021/04/08 08:34:20;;;;;;;4.90;1.63;;;6.20;83.50;;;;;;4864201;29;20045;-74
2021/04/08 08:36:53;;;;;;;3.07;1.40;;;6.30;83.60;;;;;;4855971;29;20045;-74
2021/04/08 08:39:22;;;;;;;3.92;1.50;;;6.40;83.40;;;;;;4859170;29;20378;-75
2021/04/08 08:41:50;;;;;;;4.83;1.90;;;6.60;83.10;;;;;;4866059;29;20044;-75
2021/04/08 08:44:19;;;;;;;6.47;2.20;;;6.70;82.30;;;;;;4858591;29;20050;-75
2021/04/08 08:47:01;;;;;;;4.17;2.40;;;6.80;80.90;;;;;;4861499;29;20033;-75
2021/04/08 08:49:35;;;;;;;2.60;1.75;;;6.90;81.40;;;;;;4858504;29;20056;-75
2021/04/08 08:52:03;;;;;;;3.67;1.40;;;7.00;82.20;;;;;;4865571;29;20077;-75
2021/04/08 08:54:32;;;;;;;4.00;1.63;;;7.20;81.80;;;;;;4858870;29;20148;-75
2021/04/08 08:57:03;;;;;;;2.27;1.23;;;7.40;82.10;;;;;;4858602;29;20390;-75
2021/04/08 08:59:30;;;;;;;5.43;1.40;;;7.50;81.00;;;;;;4840329;29;20045;-74
2021/04/08 09:01:58;;;;;;;3.00;1.47;;;7.70;80.90;;;;;;4851106;29;20054;-74
2021/04/08 09:04:26;;;;;;;3.47;1.67;;;7.80;80.20;;;;;;4843785;29;20383;-76
2021/04/08 09:06:58;;;;;;;3.27;1.83;;;8.00;79.00;;;;;;4860852;29;20053;-74
2021/04/08 09:09:27;;;;;;;3.83;1.83;;;8.00;78.30;;;;;;4860998;29;20045;-76
2021/04/08 09:11:58;;;;;;;4.47;1.73;;;8.00;78.40;;;;;;4854816;29;20050;-76
2021/04/08 09:14:26;;;;;;;3.37;2.20;;;7.90;77.70;;;;;;4861971;29;20457;-74
2021/04/08 09:16:54;;;;;;;5.33;2.30;;;7.70;75.70;;;;;;4861571;29;20042;-73
2021/04/08 09:19:32;;;;;;;5.30;2.00;;;7.50;75.50;;;;;;4863825;29;20049;-73
2021/04/08 09:22:10;;;;;;;4.37;1.83;;;7.40;75.50;;;;;;4863820;29;20050;-74
2021/04/08 09:24:48;;;;;;;3.47;1.80;;;7.40;76.50;;;;;;4863430;29;20052;-74
2021/04/08 09:27:21;;;;;;;5.40;1.67;;;7.40;75.70;;;;;;4862695;29;20113;-74
2021/04/08 09:29:55;;;;;;;4.77;1.90;;;7.40;76.00;;;;;;4862135;29;20056;-73
2021/04/08 09:32:33;;;;;;;5.03;1.90;;;7.40;74.00;;;;;;4864001;29;20050;-75
2021/04/08 09:35:08;;;;;;;3.53;1.50;;;7.40;73.70;;;;;;4852220;29;20033;-74
2021/04/08 09:37:45;;;;;;;3.03;1.93;;;7.40;74.20;;;;;;4860354;29;20076;-74
2021/04/08 09:40:21;;;;;;;3.30;1.97;;;7.60;73.50;;;;;;4862506;29;20046;-75
2021/04/08 09:42:53;;;;;;;3.50;2.23;;;7.80;72.80;;;;;;4862279;29;20076;-74
2021/04/08 09:45:20;;;;;;;3.47;1.80;;;7.90;72.90;;;;;;4861732;29;20455;-73
2021/04/08 09:47:46;;;;;;;2.30;1.55;;;7.90;71.90;;;;;;4862132;29;20136;-74
2021/04/08 09:50:42;;;;;;;3.63;1.43;;;8.00;71.90;;;;;;4862009;29;20041;-74
2021/04/08 09:53:10;;;;;;;3.38;1.70;;;8.10;72.90;;;;;;4854625;29;20057;-73
2021/04/08 09:55:37;;;;;;;3.73;1.50;;;8.20;72.20;;;;;;4846396;29;20041;-74
2021/04/08 09:58:05;;;;;;;5.00;2.13;;;8.50;72.20;;;;;;4861164;29;20144;-74
2021/04/08 10:00:32;;;;;;;3.80;1.95;;;8.70;71.50;;;;;;4846164;29;20129;-75
2021/04/08 10:02:59;;;;;;;4.90;2.30;;;8.90;71.40;;;;;;4868006;29;20049;-76
2021/04/08 10:05:37;;;;;;;5.20;2.38;;;9.00;70.20;;;;;;4866936;29;20058;-75
2021/04/08 10:08:09;;;;;;;4.13;2.00;;;9.00;70.00;;;;;;4839956;29;20045;-75
2021/04/08 10:10:35;;;;;;;5.00;1.97;;;9.10;70.50;;;;;;4863040;29;20073;-75
2021/04/08 10:13:28;;;;;;;5.37;2.37;;;9.20;69.90;;;;;;4854509;29;20057;-76
2021/04/08 10:15:57;;;;;;;4.30;2.40;;;9.20;69.40;;;;;;4860551;29;20041;-79
2021/04/08 10:18:29;;;;;;;4.50;2.00;;;9.20;68.60;;;;;;4858283;29;20053;-75
2021/04/08 10:20:58;;;;;;;3.50;1.70;;;9.30;68.50;;;;;;4872814;29;20588;-75
2021/04/08 10:23:32;;;;;;;4.00;2.22;;;9.30;69.10;;;;;;4861442;29;20140;-74
2021/04/08 10:26:01;;;;;;;5.75;2.75;;;9.30;67.90;;;;;;4860796;29;20041;-75
2021/04/08 10:28:46;;;;;;;4.43;2.97;;;9.40;67.10;;;;;;4859930;29;20045;-75
2021/04/08 10:31:17;;;;;;;6.22;2.90;;;9.40;67.00;;;;;;4859241;29;20681;-76
2021/04/08 10:33:48;;;;;;;4.28;2.45;;;9.30;65.80;;;;;;4856620;29;20130;-75
2021/04/08 10:36:25;;;;;;;5.22;2.88;;;9.30;65.90;;;;;;4857334;29;20049;-74
2021/04/08 10:39:07;;;;;;;6.30;3.00;;;9.30;64.10;;;;;;4858139;29;20037;-75
2021/04/08 10:41:36;;;;;;;6.13;3.22;;;9.20;63.90;;;;;;4858506;29;20405;-74
2021/04/08 10:44:25;;;;;;;5.57;3.40;;;9.10;63.30;;;;;;4832320;29;20041;-75
2021/04/08 10:46:55;;;;;;;6.28;3.20;;;9.10;63.00;;;;;;4833111;29;20054;-75
2021/04/08 10:49:25;;;;;;;3.92;2.78;;;9.10;62.60;;;;;;4859505;29;20116;-75
2021/04/08 10:51:53;;;;;;;5.05;2.80;;;9.10;62.60;;;;;;4850819;29;20041;-76
2021/04/08 10:54:30;;;;;;;4.75;3.35;;;9.10;61.70;;;;;;4843938;29;20561;-75
2021/04/08 10:57:00;;;;;;;7.97;3.45;;;9.10;61.10;;;;;;4868769;29;20058;-75
2021/04/08 10:59:27;;;;;;;4.82;3.17;;;9.10;61.20;;;;;;4854544;29;20076;-75
2021/04/08 11:01:54;;;;;;;6.70;3.10;;;9.10;61.20;;;;;;4859627;29;20117;-75
2021/04/08 11:04:23;;;;;;;5.35;2.75;;;9.10;61.20;;;;;;4851289;29;20049;-75
2021/04/08 11:06:51;;;;;;;4.20;3.00;;;9.20;62.00;;;;;;4857999;29;20045;-76
2021/04/08 11:09:25;;;;;;;5.35;2.88;;;9.30;62.20;;;;;;4857419;29;20068;-74
2021/04/08 11:11:53;;;;;;;4.45;3.13;;;9.40;62.00;;;;;;4857423;29;20113;-74
2021/04/08 11:14:25;;;;;;;5.65;2.88;;;9.30;61.30;;;;;;4851019;29;20058;-74
2021/04/08 11:16:54;;;;;;;5.77;3.40;;;9.30;61.50;;;;;;4856219;29;20046;-74
2021/04/08 11:19:21;;;;;;;7.70;3.42;;;9.20;61.20;;;;;;4857352;29;20294;-75
2021/04/08 11:21:48;;;;;;;4.97;3.00;;;9.20;61.10;;;;;;4845178;29;20093;-75
2021/04/08 11:24:16;;;;;;;4.43;2.50;;;9.20;61.20;;;;;;4858602;29;20468;-78
2021/04/08 11:26:53;;;;;;;6.85;3.13;;;9.20;61.70;;;;;;4859040;29;20037;-75
2021/04/08 11:29:25;;;;;;;3.92;2.85;;;9.30;61.50;;;;;;4853582;29;20125;-74
2021/04/08 11:32:02;;;;;;;5.13;3.33;;;9.40;61.10;;;;;;4858841;29;20152;-76
2021/04/08 11:34:43;;;;;;;5.95;3.45;;;9.50;60.60;;;;;;4856624;29;20045;-75
2021/04/08 11:37:11;;;;;;;5.40;3.30;;;9.50;60.30;;;;;;4860460;29;20049;-75
2021/04/08 11:39:38;;;;;;;5.07;3.55;;;9.50;60.00;;;;;;4861803;29;20521;-76
2021/04/08 11:42:21;;;;;;;5.13;3.67;;;9.50;59.10;;;;;;4864694;29;20097;-76
2021/04/08 11:44:50;;;;;;;6.50;3.63;;;9.60;58.80;;;;;;4853969;29;20050;-76
2021/04/08 11:47:22;;;;;;;6.72;3.70;;;9.60;58.60;;;;;;4838471;29;20050;-75
2021/04/08 11:49:54;;;;;;;4.53;2.90;;;9.60;58.60;;;;;;4856673;29;20406;-74
2021/04/08 11:52:23;;;;;;;7.13;3.65;;;9.70;59.80;;;;;;4856764;29;20054;-74
2021/04/08 11:55:01;;;;;;;4.30;3.10;;;9.90;58.90;;;;;;4837276;29;20494;-76
2021/04/08 11:57:28;;;;;;;6.07;3.95;;;9.90;58.90;;;;;;4859117;29;20042;-76
2021/04/08 12:00:00;;;;;;;6.07;3.63;;;9.80;58.60;;;;;;4858118;29;20116;-76
2021/04/08 12:02:31;;;;;;;5.80;3.88;;;9.70;58.70;;;;;;4862070;29;20041;-76
2021/04/08 12:05:00;;;;;;;7.72;3.40;;;9.60;59.40;;;;;;4857250;29;20761;-76
2021/04/08 12:07:28;;;;;;;5.60;3.60;;;9.70;59.40;;;;;;4857095;29;20148;-74
2021/04/08 12:09:55;;;;;;;4.88;2.78;;;9.70;59.80;;;;;;4856728;29;20524;-75
2021/04/08 12:12:31;;;;;;;4.70;2.83;;;9.70;60.00;;;;;;4855943;29;20042;-76
2021/04/08 12:14:58;;;;;;;7.72;3.65;;;9.70;60.20;;;;;;4826525;29;20053;-75
2021/04/08 12:17:26;;;;;;;5.85;3.80;;;9.70;60.00;;;;;;4855380;29;20150;-76
2021/04/08 12:19:54;;;;;;;5.32;3.28;;;9.70;59.70;;;;;;4857994;29;20034;-74
2021/04/08 12:22:22;;;;;;;8.07;3.17;;;9.70;59.80;;;;;;4858325;29;20040;-75
2021/04/08 12:25:10;;;;;;;7.20;4.00;;;9.80;59.20;;;;;;4857404;29;20041;-76
2021/04/08 12:27:37;;;;;;;7.90;3.28;;;9.90;59.30;;;;;;4858608;29;20073;-76
2021/04/08 12:30:06;;;;;;;6.45;3.33;;;10.00;59.70;;;;;;4856827;29;20490;-76
2021/04/08 12:32:33;;;;;;;6.18;4.10;;;10.10;59.30;;;;;;4841713;29;20117;-76
2021/04/08 12:35:00;;;;;;;6.90;5.43;;;10.10;58.50;;;;;;4842087;29;20056;-76
2021/04/08 12:37:27;;;;;;;6.47;5.13;;;10.00;57.40;;;;;;4858111;29;20454;-75
2021/04/08 12:39:54;;;;;;;7.22;4.30;;;9.90;56.90;;;;;;4858554;29;20117;-75
2021/04/08 12:42:21;;;;;;;5.03;3.50;;;9.80;57.10;;;;;;4857072;29;20073;-74
2021/04/08 12:44:48;;;;;;;7.55;4.32;;;9.80;57.20;;;;;;4858107;29;20074;-75
2021/04/08 12:47:16;;;;;;;4.45;3.17;;;9.90;57.80;;;;;;4865647;29;20045;-75
2021/04/08 12:49:42;;;;;;;4.70;3.58;;;9.90;57.30;;;;;;4856976;29;20052;-75
2021/04/08 12:52:09;;;;;;;5.47;3.72;;;9.90;57.50;;;;;;4828517;29;20057;-75
2021/04/08 12:54:35;;;;;;;5.97;3.97;;;10.00;57.50;;;;;;4862089;29;20041;-75
2021/04/08 12:57:03;;;;;;;6.28;4.07;;;9.90;57.30;;;;;;4864039;29;20041;-75
2021/04/08 12:59:30;;;;;;;5.97;4.38;;;9.90;57.10;;;;;;4855977;29;20388;-75
2021/04/08 13:01:58;;;;;;;4.95;3.63;;;9.90;57.30;;;;;;4859508;29;20046;-75
2021/04/08 13:04:25;;;;;;;6.05;3.97;;;10.00;57.60;;;;;;4832735;29;20109;-76
2021/04/08 13:06:52;;;;;;;6.60;4.10;;;10.00;56.50;;;;;;4863678;29;20117;-75
2021/04/08 13:09:18;;;;;;;6.45;4.13;;;10.00;56.50;;;;;;4846951;29;20045;-73
2021/04/08 13:11:45;;;;;;;6.50;3.83;;;9.90;56.10;;;;;;4862973;29;20053;-73
2021/04/08 13:14:16;;;;;;;6.50;3.83;;;9.90;56.40;;;;;;4865318;29;20053;-74